Latest Weather Observations for Bickley

IDW60901

Issued at 7:51 pm WST Friday 3 July 2015 (issued every 10 minutes, with the page automatically refreshed every 10 minutes)

About weather observations | Map of Perth area stations | Latest observations for Perth area | Other Formats
Station Details ID: 009240 Name: BICKLEY Lat: -32.01 Lon: 116.14 Height: 384.0 m
Data from the previous 72 hours. | See also: Recent months at Bickley
Date/Time
WST
Tmp

°C
App
Tmp
°C
Dew
Point
°C
Rel
Hum
%
Delta-T

°C
Wind Press
QNH
hPa
Press
MSL
hPa
Rain
since
9 am
mm
Dir
 
Spd
km/h
Gust
km/h
Spd
kts
Gust
kts
03/07:30pm 13.5 12.5 12.2 92 0.7 W 9 13 5 7 - - 0.0
03/07:00pm 13.8 12.5 12.4 91 0.8 W 11 13 6 7 - - 0.0
03/06:30pm 14.0 12.6 12.2 89 1.0 WSW 11 15 6 8 - - 0.0
03/05:30pm 15.0 13.7 12.5 85 1.4 W 11 15 6 8 - - 0.0
03/05:00pm 15.6 13.9 12.4 81 1.8 W 13 20 7 11 - - 0.0
03/04:30pm 16.1 14.4 12.3 78 2.1 W 13 20 7 11 - - 0.0
03/04:00pm 17.2 16.0 12.9 76 2.4 W 11 22 6 12 - - 0.0
03/03:30pm 17.8 16.2 12.9 73 2.8 W 13 17 7 9 - - 0.0
03/03:00pm 17.4 16.4 13.3 77 2.3 W 11 17 6 9 - - 0.0
03/02:30pm 18.2 16.6 12.9 71 3.0 WSW 13 20 7 11 - - 0.0
03/02:00pm 17.7 16.2 13.0 74 2.7 W 13 22 7 12 - - 0.0
03/01:30pm 17.8 17.6 14.7 82 1.8 W 9 20 5 11 - - 0.0
03/01:00pm 16.7 16.1 13.6 82 1.8 WSW 9 17 5 9 - - 0.0
03/12:30pm 17.4 17.8 14.7 84 1.6 WSW 6 11 3 6 - - 0.0
03/12:00pm 17.2 17.3 15.4 89 1.1 NW 9 15 5 8 - - 0.0
03/11:30am 18.2 18.5 17.0 93 0.7 NW 11 15 6 8 - - 0.0
03/11:00am 16.5 17.2 16.0 97 0.3 W 7 11 4 6 - - 0.0
03/10:30am 15.5 16.4 15.2 98 0.2 SW 4 7 2 4 - - 0.0
03/10:00am 15.1 15.9 14.9 99 0.1 WNW 4 7 2 4 - - 0.0
03/09:30am 14.9 15.3 14.7 99 0.1 WSW 6 7 3 4 - - 0.0
03/09:00am 14.8 15.1 14.6 99 0.1 WNW 6 9 3 5 - - 0.6
03/08:30am 14.5 14.7 14.3 99 0.1 NW 6 9 3 5 - - 0.6
03/08:00am 14.5 14.5 14.3 99 0.1 WNW 7 11 4 6 - - 0.6
03/07:30am 14.3 13.9 14.1 99 0.1 WNW 9 13 5 7 - - 0.6
03/07:00am 14.2 14.1 14.0 99 0.1 WNW 7 11 4 6 - - 0.6
03/06:30am 14.1 13.6 13.9 99 0.1 NW 9 13 5 7 - - 0.6
03/06:00am 14.0 13.5 13.8 99 0.1 NW 9 13 5 7 - - 0.6
03/05:30am 14.0 13.5 13.7 98 0.2 WNW 9 15 5 8 - - 0.6
03/05:00am 14.1 13.2 13.8 98 0.2 NW 11 17 6 9 - - 0.6
03/04:30am 14.1 13.2 13.8 98 0.2 WNW 11 17 6 9 - - 0.6
03/04:00am 14.2 13.7 13.7 97 0.3 NW 9 15 5 8 - - 0.6
03/03:30am 13.9 12.9 13.4 97 0.3 NW 11 20 6 11 - - 0.6
03/03:00am 13.7 12.6 13.1 96 0.3 NNW 11 22 6 12 - - 0.6
03/02:30am 13.5 12.3 12.9 96 0.3 NNW 11 15 6 8 - - 0.6
03/02:00am 12.6 12.0 11.8 95 0.4 N 6 11 3 6 - - 0.6
03/01:30am 12.5 11.7 11.7 95 0.4 N 7 17 4 9 - - 0.6
03/01:00am 12.3 11.4 11.4 94 0.5 NNE 7 13 4 7 - - 0.6
03/12:30am 12.3 11.0 11.4 94 0.5 NNE 9 13 5 7 - - 0.6
03/12:00am 12.1 10.7 11.0 93 0.6 NNE 9 13 5 7 - - 0.6
 
Date/Time
WST
Tmp

°C
App
Tmp
°C
Dew
Point
°C
Rel
Hum
%
Delta-T

°C
Wind Press
QNH
hPa
Press
MSL
hPa
Rain
since
9 am
mm
Dir
 
Spd
km/h
Gust
km/h
Spd
kts
Gust
kts
02/11:30pm 11.8 9.5 10.5 92 0.7 N 13 20 7 11 - - 0.6
02/11:00pm 11.7 10.5 10.4 92 0.7 N 7 11 4 6 - - 0.6
02/10:30pm 11.8 9.9 10.4 91 0.7 N 11 17 6 9 - - 0.6
02/10:00pm 11.8 10.1 10.0 89 0.9 N 9 15 5 8 - - 0.6
02/09:30pm 12.3 10.7 10.2 87 1.1 N 9 15 5 8 - - 0.6
02/09:00pm 12.9 11.0 10.4 85 1.3 NNW 11 17 6 9 - - 0.6
02/08:30pm 13.6 11.2 10.2 80 1.8 NNW 13 20 7 11 - - 0.6
02/08:00pm 13.8 11.4 10.0 78 2.0 NNW 13 20 7 11 - - 0.6
02/07:30pm 13.7 10.9 10.1 79 1.9 N 15 22 8 12 - - 0.6
02/07:00pm 14.4 12.2 9.2 71 2.7 NNW 11 15 6 8 - - 0.2
02/06:30pm 14.6 12.4 9.4 71 2.7 NNW 11 20 6 11 - - 0.2
02/06:00pm 14.6 12.5 9.6 72 2.6 NNW 11 17 6 9 - - 0.2
02/05:30pm 14.1 11.9 9.5 74 2.4 NNW 11 15 6 8 - - 0.2
02/05:00pm 15.2 13.1 9.6 69 3.0 NNW 11 13 6 7 - - 0.0
02/04:30pm 15.8 13.7 9.9 68 3.1 NNW 11 15 6 8 - - 0.0
02/04:00pm 16.5 14.8 9.9 65 3.5 N 9 13 5 7 - - 0.0
02/03:30pm 17.4 15.8 10.3 63 3.8 N 9 15 5 8 - - 0.0
02/03:00pm 16.6 15.5 10.5 67 3.3 NNE 7 15 4 8 - - 0.0
02/02:30pm 16.1 14.1 10.0 67 3.3 NNE 11 20 6 11 - - 0.0
02/02:00pm 15.7 13.6 9.8 68 3.1 NNE 11 20 6 11 - - 0.0
02/01:30pm 15.5 14.0 10.7 73 2.6 NE 9 15 5 8 - - 0.0
02/01:00pm 15.0 13.2 10.8 76 2.3 NNE 11 22 6 12 - - 0.0
02/12:30pm 14.2 12.4 10.8 80 1.8 NE 11 15 6 8 - - 0.0
02/12:00pm 13.7 11.4 10.5 81 1.7 NE 13 26 7 14 - - 0.0
02/11:30am 13.2 10.5 10.2 82 1.6 NE 15 20 8 11 - - 0.0
02/11:00am 12.8 10.3 9.8 82 1.6 ENE 13 20 7 11 - - 0.0
02/10:30am 12.4 10.2 9.2 81 1.6 ENE 11 17 6 9 - - 0.0
02/10:00am 12.5 9.1 9.1 80 1.7 ENE 17 24 9 13 - - 0.0
02/09:30am 12.2 9.1 8.7 79 1.8 ENE 15 24 8 13 - - 0.0
02/09:00am 11.9 8.1 8.9 82 1.5 ENE 19 26 10 14 - - 2.6
02/08:30am 11.4 7.5 8.6 83 1.4 ENE 19 24 10 13 - - 2.6
02/08:00am 11.2 7.6 8.4 83 1.4 ENE 17 24 9 13 - - 2.6
02/07:30am 11.2 7.3 8.8 85 1.2 E 19 24 10 13 - - 2.6
02/07:00am 11.0 7.5 8.9 87 1.1 E 17 24 9 13 - - 2.6
02/06:30am 11.0 7.3 9.3 89 0.9 ENE 19 26 10 14 - - 2.6
02/06:00am 11.1 7.8 9.5 90 0.8 E 17 24 9 13 - - 2.6
02/05:30am 11.1 7.8 9.7 91 0.7 E 17 22 9 12 - - 2.6
02/05:00am 11.0 7.8 9.8 92 0.6 E 17 22 9 12 - - 2.6
02/04:30am 11.0 8.1 9.8 92 0.6 E 15 20 8 11 - - 2.6
02/04:00am 11.1 8.7 10.0 93 0.6 E 13 20 7 11 - - 2.6
02/03:30am 11.3 8.9 10.2 93 0.6 ENE 13 20 7 11 - - 2.6
02/03:00am 11.2 8.4 10.1 93 0.6 ENE 15 17 8 9 - - 2.6
02/02:30am 11.1 7.9 10.0 93 0.6 ENE 17 24 9 13 - - 2.6
02/02:00am 11.2 9.1 9.9 92 0.7 ENE 11 15 6 8 - - 2.6
02/01:30am 11.3 8.9 10.0 92 0.7 ENE 13 15 7 8 - - 2.4
02/01:00am 11.3 8.9 10.0 92 0.7 NNE 13 17 7 9 - - 2.4
02/12:30am 11.4 9.0 10.0 91 0.7 NE 13 20 7 11 - - 2.0
02/12:00am 11.5 8.7 9.9 90 0.8 ENE 15 20 8 11 - - 1.6
 
Date/Time
WST
Tmp

°C
App
Tmp
°C
Dew
Point
°C
Rel
Hum
%
Delta-T

°C
Wind Press
QNH
hPa
Press
MSL
hPa
Rain
since
9 am
mm
Dir
 
Spd
km/h
Gust
km/h
Spd
kts
Gust
kts
01/11:30pm 11.7 8.2 10.1 90 0.8 NE 19 30 10 16 - - 1.0
01/11:00pm 11.5 8.6 9.8 89 0.9 NE 15 24 8 13 - - 1.0
01/10:30pm 11.5 9.4 9.6 88 1.0 NE 11 17 6 9 - - 1.0
01/10:00pm 11.8 9.6 9.5 86 1.2 NE 11 15 6 8 - - 0.8
01/09:30pm 12.2 10.4 9.6 84 1.3 NE 9 13 5 7 - - 0.6
01/09:00pm 12.5 10.8 9.7 83 1.5 NNE 9 11 5 6 - - 0.6
01/08:30pm 12.2 10.4 9.6 84 1.3 NNE 9 11 5 6 - - 0.4
01/08:00pm 12.1 10.3 9.5 84 1.3 NNE 9 11 5 6 - - 0.4
01/07:30pm 12.0 10.1 9.2 83 1.4 ENE 9 13 5 7 - - 0.4
01/07:00pm 12.4 10.5 9.1 80 1.7 ENE 9 11 5 6 - - 0.4
01/06:30pm 13.4 11.1 8.9 74 2.3 N 11 15 6 8 - - 0.4
01/06:00pm 13.6 11.4 9.5 76 2.1 NNW 11 20 6 11 - - 0.4
01/05:30pm 12.8 9.9 9.8 82 1.6 NNW 15 22 8 12 - - 0.4
01/05:00pm 12.8 10.5 9.1 78 1.9 NNW 11 17 6 9 - - 0.2
01/04:30pm 13.6 10.4 8.4 71 2.7 NNW 15 20 8 11 - - 0.2
01/04:00pm 14.6 12.1 8.3 66 3.2 NNW 11 17 6 9 - - 0.0
01/03:30pm 15.7 13.4 7.5 58 4.2 NNW 9 15 5 8 - - 0.0
01/03:00pm 15.9 13.6 7.4 57 4.3 NNW 9 15 5 8 - - 0.0
01/02:30pm 16.0 14.6 8.7 62 3.8 N 6 9 3 5 - - 0.0
01/02:00pm 16.1 15.0 8.3 60 4.0 NNW 4 7 2 4 - - 0.0
01/01:30pm 16.5 15.0 8.5 59 4.2 N 6 7 3 4 - - 0.0
01/01:00pm 16.3 14.7 7.8 57 4.4 N 6 7 3 4 - - 0.0
01/12:30pm 16.1 14.9 8.1 59 4.1 N 4 7 2 4 - - 0.0
01/12:00pm 15.3 13.3 8.8 65 3.4 NNE 9 13 5 7 - - 0.0
01/11:30am 14.8 12.7 8.1 64 3.4 NNE 9 13 5 7 - - 0.0
01/11:00am 15.2 13.0 7.7 61 3.8 NE 9 13 5 7 - - 0.0
01/10:30am 15.9 13.3 7.9 59 4.1 NE 11 15 6 8 - - 0.0
01/10:00am 15.3 13.6 8.5 64 3.5 NE 7 13 4 7 - - 0.0
01/09:30am 15.0 13.0 8.7 66 3.3 NE 9 15 5 8 - - 0.0
01/09:00am 12.5 9.9 7.8 73 2.3 NE 11 15 6 8 - - 0.0
01/08:30am 12.5 10.3 7.8 73 2.3 NE 9 11 5 6 - - 0.0
01/08:00am 12.1 9.8 7.4 73 2.3 NE 9 11 5 6 - - 0.0
01/07:30am 11.6 8.9 7.3 75 2.1 NE 11 13 6 7 - - 0.0
01/07:00am 11.5 8.8 7.2 75 2.1 NNE 11 13 6 7 - - 0.0
01/06:30am 11.8 9.1 7.5 75 2.1 NNE 11 13 6 7 - - 0.0
01/06:00am 12.1 9.9 7.8 75 2.1 N 9 13 5 7 - - 0.0
01/05:30am 12.3 10.2 8.2 76 2.1 NNE 9 13 5 7 - - 0.0
01/05:00am 11.6 8.9 7.3 75 2.1 NE 11 13 6 7 - - 0.0
01/04:30am 12.0 9.7 7.5 74 2.2 NE 9 11 5 6 - - 0.0
01/04:00am 12.0 9.7 7.3 73 2.3 NE 9 11 5 6 - - 0.0
01/03:30am 13.4 11.3 8.3 71 2.6 N 9 13 5 7 - - 0.0
01/03:00am 13.5 11.1 8.6 72 2.5 NNE 11 13 6 7 - - 0.0
01/02:30am 13.7 12.0 8.5 71 2.7 N 7 11 4 6 - - 0.0
01/02:00am 14.2 11.8 8.8 70 2.8 N 11 15 6 8 - - 0.0
01/01:30am 14.7 12.4 8.9 68 3.0 NNW 11 15 6 8 - - 0.0
01/01:00am 14.7 12.4 9.1 69 2.9 NNW 11 17 6 9 - - 0.0
01/12:30am 14.3 12.4 9.1 71 2.7 NW 9 13 5 7 - - 0.0
01/12:00am 14.5 12.6 9.1 70 2.8 N 9 15 5 8 - - 0.0
 
Date/Time
WST
Tmp

°C
App
Tmp
°C
Dew
Point
°C
Rel
Hum
%
Delta-T

°C
Wind Press
QNH
hPa
Press
MSL
hPa
Rain
since
9 am
mm
Dir
 
Spd
km/h
Gust
km/h
Spd
kts
Gust
kts
30/11:30pm 13.9 11.7 7.9 67 3.0 NNE 9 15 5 8 - - 0.0
30/11:00pm 13.5 11.3 7.9 69 2.8 NE 9 13 5 7 - - 0.0
30/10:30pm 13.6 11.0 7.8 68 2.9 NNE 11 13 6 7 - - 0.0
30/10:00pm 14.0 11.9 8.4 69 2.9 NE 9 15 5 8 - - 0.0
30/09:30pm 14.3 12.9 8.9 70 2.8 N 6 7 3 4 - - 0.0
30/09:00pm 13.9 12.2 8.5 70 2.8 NE 7 9 4 5 - - 0.0
30/08:30pm 13.8 12.2 8.6 71 2.7 NE 7 9 4 5 - - 0.0
30/08:00pm 14.4 12.5 9.2 71 2.7 NNE 9 11 5 6 - - 0.0

Latest Capital City Observations: Canberra | Sydney | Melbourne | Brisbane | Adelaide | Perth | Hobart | Darwin

Other Formats:

Comma delimited format used in spreadsheet applications
http://www.bom.gov.au/fwo/IDW60901/IDW60901.95610.axf

JavaScript Object Notation format (JSON) in row-major order
http://www.bom.gov.au/fwo/IDW60901/IDW60901.95610.json